createdAt,value
2017-02-09T00:00:41.786Z,1028.46
2017-02-09T00:01:52.548Z,1028.47
2017-02-09T00:03:03.264Z,1028.43
2017-02-09T00:04:14.237Z,1028.47
2017-02-09T00:05:24.556Z,1028.47
2017-02-09T00:06:34.877Z,1028.45
2017-02-09T00:07:45.825Z,1028.48
2017-02-09T00:08:56.154Z,1028.45
2017-02-09T00:10:07.120Z,1028.48
2017-02-09T00:11:17.441Z,1028.48
2017-02-09T00:12:28.161Z,1028.56
2017-02-09T00:13:38.884Z,1028.54
2017-02-09T00:14:49.197Z,1028.57
2017-02-09T00:16:00.156Z,1028.65
2017-02-09T00:17:10.480Z,1028.64
2017-02-09T00:18:21.197Z,1028.64
2017-02-09T00:19:31.905Z,1028.65
2017-02-09T00:20:42.615Z,1028.64
2017-02-09T00:21:53.631Z,1028.66
2017-02-09T00:23:04.346Z,1028.67
2017-02-09T00:24:15.067Z,1028.64
2017-02-09T00:25:25.788Z,1028.66
2017-02-09T00:26:35.764Z,1028.66
2017-02-09T00:27:46.774Z,1028.67
2017-02-09T00:28:57.484Z,1028.68
2017-02-09T00:30:07.802Z,1028.68
2017-02-09T00:31:17.728Z,1028.7
2017-02-09T00:32:28.052Z,1028.73
2017-02-09T00:33:38.631Z,1028.74
2017-02-09T00:34:49.344Z,1028.72
2017-02-09T00:35:59.663Z,1028.72
2017-02-09T00:37:09.590Z,1028.73
2017-02-09T00:38:19.917Z,1028.7
2017-02-09T00:39:30.890Z,1028.72
2017-02-09T00:40:41.207Z,1028.73
2017-02-09T00:41:51.920Z,1028.71
2017-02-09T00:43:02.625Z,1028.73
2017-02-09T00:44:13.342Z,1028.74
2017-02-09T00:45:24.355Z,1028.75
2017-02-09T00:46:34.684Z,1028.75
2017-02-09T00:47:44.594Z,1028.78
2017-02-09T00:48:55.304Z,1028.76
2017-02-09T00:50:05.621Z,1028.72
2017-02-09T00:51:16.631Z,1028.78
2017-02-09T00:52:27.357Z,1028.76
2017-02-09T00:53:38.073Z,1028.75
2017-02-09T00:54:48.794Z,1028.75
2017-02-09T00:55:59.515Z,1028.75
2017-02-09T00:57:10.490Z,1028.76
2017-02-09T00:58:20.810Z,1028.76
2017-02-09T00:59:31.520Z,1028.78
2017-02-09T01:00:42.240Z,1028.8
2017-02-09T01:01:52.954Z,1028.81
2017-02-09T01:03:03.920Z,1028.79
2017-02-09T01:04:14.638Z,1028.81
2017-02-09T01:05:24.959Z,1028.82
2017-02-09T01:06:35.671Z,1028.85
2017-02-09T01:07:46.407Z,1028.87
2017-02-09T01:08:57.373Z,1028.86
2017-02-09T01:10:08.093Z,1028.86
2017-02-09T01:11:18.822Z,1028.91
2017-02-09T01:12:29.149Z,1028.87
2017-02-09T01:13:39.465Z,1028.89
2017-02-09T01:14:50.436Z,1028.9
2017-02-09T01:16:01.165Z,1028.91
2017-02-09T01:17:12.629Z,1028.91
2017-02-09T01:18:23.344Z,1028.83
2017-02-09T01:19:34.055Z,1028.84
2017-02-09T01:20:44.613Z,1028.82
2017-02-09T01:21:54.543Z,1028.8
2017-02-09T01:23:04.877Z,1028.81
2017-02-09T01:24:15.600Z,1028.85
2017-02-09T01:25:26.317Z,1028.84
2017-02-09T01:26:37.276Z,1028.82
2017-02-09T01:27:47.202Z,1028.83
2017-02-09T01:28:57.516Z,1028.84
2017-02-09T01:30:08.237Z,1028.81
2017-02-09T01:31:18.563Z,1028.82
2017-02-09T01:32:29.536Z,1028.83
2017-02-09T01:33:40.243Z,1028.82
2017-02-09T01:34:50.951Z,1028.8
2017-02-09T01:36:01.674Z,1028.8
2017-02-09T01:37:12.384Z,1028.81
2017-02-09T01:38:23.399Z,1028.81
2017-02-09T01:39:34.115Z,1028.82
2017-02-09T01:40:44.436Z,1028.78
2017-02-09T01:41:55.142Z,1028.8
2017-02-09T01:43:05.449Z,1028.8
2017-02-09T01:44:16.044Z,1028.81
2017-02-09T01:45:26.356Z,1028.8
2017-02-09T01:46:36.269Z,1028.79
2017-02-09T01:47:46.189Z,1028.82
2017-02-09T01:48:56.499Z,1028.79
2017-02-09T01:50:06.707Z,1028.75
2017-02-09T01:51:16.627Z,1028.76
2017-02-09T01:52:27.326Z,1028.8
2017-02-09T01:53:37.633Z,1028.8
2017-02-09T01:54:47.957Z,1028.8
2017-02-09T01:55:58.512Z,1028.79
2017-02-09T01:57:09.222Z,1028.77
2017-02-09T01:58:19.542Z,1028.73
2017-02-09T01:59:30.260Z,1028.8
2017-02-09T02:00:40.972Z,1028.8
2017-02-09T02:01:51.529Z,1028.75
2017-02-09T02:03:01.449Z,1028.8
2017-02-09T02:04:12.145Z,1028.75
2017-02-09T02:05:22.073Z,1028.75
2017-02-09T02:06:32.783Z,1028.75
2017-02-09T02:07:43.395Z,1028.77
2017-02-09T02:08:54.095Z,1028.71
2017-02-09T02:10:04.406Z,1028.73
2017-02-09T02:11:15.113Z,1028.69
2017-02-09T02:12:25.821Z,1028.75
2017-02-09T02:13:36.822Z,1028.73
2017-02-09T02:14:46.342Z,1028.74
2017-02-09T02:15:56.643Z,1028.72
2017-02-09T02:17:06.560Z,1028.72
2017-02-09T02:18:16.473Z,1028.69
2017-02-09T02:19:26.687Z,1028.66
2017-02-09T02:20:37.392Z,1028.67
2017-02-09T02:21:46.511Z,1028.62
2017-02-09T02:22:57.222Z,1028.65
2017-02-09T02:24:06.749Z,1028.65
2017-02-09T02:25:17.305Z,1028.7
2017-02-09T02:26:28.009Z,1028.68
2017-02-09T02:27:38.729Z,1028.65
2017-02-09T02:28:49.027Z,1028.64
2017-02-09T02:29:58.944Z,1028.63
2017-02-09T02:31:09.904Z,1028.66
2017-02-09T02:32:20.618Z,1028.67
2017-02-09T02:33:31.319Z,1028.67
2017-02-09T02:34:41.630Z,1028.69
2017-02-09T02:35:51.938Z,1028.66
2017-02-09T02:37:02.157Z,1028.67
2017-02-09T02:38:12.483Z,1028.65
2017-02-09T02:39:22.796Z,1028.66
2017-02-09T02:40:32.725Z,1028.67
2017-02-09T02:41:43.048Z,1028.68
2017-02-09T02:42:53.600Z,1028.68
2017-02-09T02:44:03.120Z,1028.69
2017-02-09T02:45:13.823Z,1028.73
2017-02-09T02:46:24.338Z,1028.7
2017-02-09T02:47:34.633Z,1028.71
2017-02-09T02:48:44.464Z,1028.72
2017-02-09T02:49:54.764Z,1028.74
2017-02-09T02:51:05.118Z,1028.73
2017-02-09T02:52:15.828Z,1028.69
2017-02-09T02:53:25.742Z,1028.73
2017-02-09T02:54:36.351Z,1028.73
2017-02-09T02:55:47.058Z,1028.72
2017-02-09T02:56:56.968Z,1028.7
2017-02-09T02:58:07.674Z,1028.76
2017-02-09T02:59:18.405Z,1028.76
2017-02-09T03:00:28.974Z,1028.72
2017-02-09T03:01:38.880Z,1028.77
2017-02-09T03:02:49.184Z,1028.74
2017-02-09T03:03:59.107Z,1028.73
2017-02-09T03:05:09.010Z,1028.75
2017-02-09T03:06:19.579Z,1028.76
2017-02-09T03:07:30.280Z,1028.76
2017-02-09T03:08:40.194Z,1028.79
2017-02-09T03:09:50.902Z,1028.78
2017-02-09T03:11:00.806Z,1028.77
2017-02-09T03:12:10.966Z,1028.76
2017-02-09T03:13:21.871Z,1028.78
2017-02-09T03:14:32.610Z,1028.84
2017-02-09T03:15:42.924Z,1028.84
2017-02-09T03:16:53.615Z,1028.82
2017-02-09T03:18:04.626Z,1028.83
2017-02-09T03:19:14.537Z,1028.86
2017-02-09T03:20:24.854Z,1028.84
2017-02-09T03:21:35.561Z,1028.86
2017-02-09T03:22:45.877Z,1028.87
2017-02-09T03:23:56.882Z,1028.87
2017-02-09T03:25:07.193Z,1028.89
2017-02-09T03:26:17.890Z,1028.89
2017-02-09T03:27:28.197Z,1028.87
2017-02-09T03:28:39.109Z,1028.88
2017-02-09T03:29:50.073Z,1028.84
2017-02-09T03:31:00.876Z,1028.89
2017-02-09T03:32:11.775Z,1028.9
2017-02-09T03:33:22.083Z,1028.89
2017-02-09T03:34:32.796Z,1028.93
2017-02-09T03:35:43.007Z,1028.92
2017-02-09T03:36:53.721Z,1028.96
2017-02-09T03:38:04.032Z,1028.91
2017-02-09T03:39:13.961Z,1028.96
2017-02-09T03:40:24.668Z,1028.96
2017-02-09T03:41:35.230Z,1029
2017-02-09T03:42:45.145Z,1028.99
2017-02-09T03:43:55.859Z,1029
2017-02-09T03:45:06.165Z,1028.98
2017-02-09T03:46:15.689Z,1028.93
2017-02-09T03:47:25.906Z,1028.96
2017-02-09T03:48:36.600Z,1028.94
2017-02-09T03:49:46.895Z,1029.01
2017-02-09T03:50:57.202Z,1028.95
2017-02-09T03:52:07.512Z,1028.96
2017-02-09T03:53:18.080Z,1028.97
2017-02-09T03:54:28.793Z,1028.96
2017-02-09T03:55:39.102Z,1028.95
2017-02-09T03:56:49.426Z,1028.91
2017-02-09T03:58:00.131Z,1028.94
2017-02-09T03:59:10.700Z,1028.92
2017-02-09T04:00:21.416Z,1029.02
2017-02-09T04:01:31.719Z,1028.99
2017-02-09T04:02:41.634Z,1029.01
2017-02-09T04:03:52.338Z,1029.03
2017-02-09T04:05:03.298Z,1029.03
2017-02-09T04:06:13.237Z,1029.02
2017-02-09T04:07:23.557Z,1029.02
2017-02-09T04:08:33.085Z,1029
2017-02-09T04:09:43.787Z,1028.97
2017-02-09T04:10:54.735Z,1028.97
2017-02-09T04:12:05.441Z,1028.96
2017-02-09T04:13:15.739Z,1028.96
2017-02-09T04:14:25.650Z,1028.96
2017-02-09T04:15:36.375Z,1028.98
2017-02-09T04:16:47.380Z,1028.99
2017-02-09T04:17:57.691Z,1029
2017-02-09T04:19:08.006Z,1029.02
2017-02-09T04:20:18.709Z,1029.05
2017-02-09T04:21:29.022Z,1029.04
2017-02-09T04:22:40.073Z,1029.08
2017-02-09T04:23:50.767Z,1029.04
2017-02-09T04:25:00.683Z,1029.03
2017-02-09T04:26:11.000Z,1029.02
2017-02-09T04:27:21.718Z,1029.02
2017-02-09T04:28:32.728Z,1029.02
2017-02-09T04:29:43.036Z,1029.04
2017-02-09T04:30:53.747Z,1029
2017-02-09T04:32:04.457Z,1029.03
2017-02-09T04:33:15.173Z,1029.02
2017-02-09T04:34:26.176Z,1029.03
2017-02-09T04:35:36.876Z,1029.04
2017-02-09T04:36:47.183Z,1029.02
2017-02-09T04:37:57.896Z,1029.03
2017-02-09T04:39:07.407Z,1029.03
2017-02-09T04:40:18.430Z,1029.03
2017-02-09T04:41:29.149Z,1029
2017-02-09T04:42:38.675Z,1029.02
2017-02-09T04:43:48.201Z,1029
2017-02-09T04:44:58.978Z,1029.01
2017-02-09T04:46:09.142Z,1029
2017-02-09T04:47:19.452Z,1028.99
2017-02-09T04:48:30.158Z,1028.99
2017-02-09T04:49:40.467Z,1028.99
2017-02-09T04:50:50.773Z,1028.98
2017-02-09T04:52:01.347Z,1028.96
2017-02-09T04:53:11.650Z,1028.99
2017-02-09T04:54:21.567Z,1029
2017-02-09T04:55:32.270Z,1028.99
2017-02-09T04:56:42.190Z,1029.03
2017-02-09T04:57:53.191Z,1029
2017-02-09T04:59:03.907Z,1028.95
2017-02-09T05:00:13.813Z,1028.98
2017-02-09T05:01:24.532Z,1028.95
2017-02-09T05:02:34.058Z,1028.96
2017-02-09T05:03:44.230Z,1028.94
2017-02-09T05:04:54.937Z,1028.97
2017-02-09T05:06:05.644Z,1028.97
2017-02-09T05:07:15.947Z,1028.97
2017-02-09T05:08:26.658Z,1028.99
2017-02-09T05:09:36.432Z,1029
2017-02-09T05:10:46.745Z,1029
2017-02-09T05:11:57.490Z,1029.03
2017-02-09T05:13:08.195Z,1029.06
2017-02-09T05:14:18.901Z,1029.05
2017-02-09T05:15:29.113Z,1029.06
2017-02-09T05:16:39.432Z,1029.06
2017-02-09T05:17:49.750Z,1029.09
2017-02-09T05:19:00.452Z,1029.12
2017-02-09T05:20:11.155Z,1029.09
2017-02-09T05:21:21.720Z,1029.05
2017-02-09T05:22:31.634Z,1029.07
2017-02-09T05:23:41.944Z,1029.09
2017-02-09T05:24:52.648Z,1029.11
2017-02-09T05:26:02.953Z,1029.08
2017-02-09T05:27:14.814Z,1029.08
2017-02-09T05:28:25.143Z,1029.06
2017-02-09T05:29:35.467Z,1029.04
2017-02-09T05:30:46.175Z,1029.1
2017-02-09T05:31:56.923Z,1029.07
2017-02-09T05:33:07.478Z,1029.09
2017-02-09T05:34:17.781Z,1029.09
2017-02-09T05:35:27.692Z,1029.08
2017-02-09T05:36:38.405Z,1029.11
2017-02-09T05:37:49.109Z,1029.12
2017-02-09T05:39:00.069Z,1029.1
2017-02-09T05:40:10.370Z,1029.12
2017-02-09T05:41:20.686Z,1029.15
2017-02-09T05:42:31.407Z,1029.15
2017-02-09T05:43:41.727Z,1029.17
2017-02-09T05:44:52.731Z,1029.19
2017-02-09T05:46:03.441Z,1029.15
2017-02-09T05:47:13.759Z,1029.17
2017-02-09T05:48:23.681Z,1029.19
2017-02-09T05:49:33.997Z,1029.16
2017-02-09T05:50:44.958Z,1029.2
2017-02-09T05:51:54.884Z,1029.18
2017-02-09T05:53:05.591Z,1029.17
2017-02-09T05:54:15.892Z,1029.16
2017-02-09T05:55:26.210Z,1029.17
2017-02-09T05:56:36.823Z,1029.22
2017-02-09T05:57:47.134Z,1029.16
2017-02-09T05:58:57.448Z,1029.16
2017-02-09T06:00:06.972Z,1029.16
2017-02-09T06:01:17.709Z,1029.19
2017-02-09T06:02:28.727Z,1029.2
2017-02-09T06:03:39.071Z,1029.2
2017-02-09T06:04:49.774Z,1029.24
2017-02-09T06:06:00.085Z,1029.23
2017-02-09T06:07:10.820Z,1029.18
2017-02-09T06:08:21.829Z,1029.21
2017-02-09T06:09:32.145Z,1029.2
2017-02-09T06:10:42.846Z,1029.19
2017-02-09T06:11:53.158Z,1029.25
2017-02-09T06:13:03.477Z,1029.23
2017-02-09T06:14:14.088Z,1029.3
2017-02-09T06:15:24.977Z,1029.31
2017-02-09T06:16:35.684Z,1029.31
2017-02-09T06:17:46.014Z,1029.36
2017-02-09T06:18:56.732Z,1029.27
2017-02-09T06:20:07.309Z,1029.27
2017-02-09T06:21:17.227Z,1029.29
2017-02-09T06:22:27.585Z,1029.26
2017-02-09T06:23:37.509Z,1029.29
2017-02-09T06:24:47.836Z,1029.3
2017-02-09T06:25:57.613Z,1029.34
2017-02-09T06:27:07.928Z,1029.31
2017-02-09T06:28:17.851Z,1029.28
2017-02-09T06:29:27.784Z,1029.29
2017-02-09T06:30:38.095Z,1029.29
2017-02-09T06:31:48.715Z,1029.27
2017-02-09T06:32:59.434Z,1029.3
2017-02-09T06:34:09.771Z,1029.28
2017-02-09T06:35:20.497Z,1029.35
2017-02-09T06:36:31.204Z,1029.33
2017-02-09T06:37:42.162Z,1029.28
2017-02-09T06:38:52.884Z,1029.32
2017-02-09T06:40:03.193Z,1029.33
2017-02-09T06:41:13.919Z,1029.35
2017-02-09T06:42:24.642Z,1029.35
2017-02-09T06:43:35.252Z,1029.38
2017-02-09T06:44:46.001Z,1029.41
2017-02-09T06:45:56.739Z,1029.42
2017-02-09T06:47:07.073Z,1029.41
2017-02-09T06:48:17.412Z,1029.47
2017-02-09T06:49:27.966Z,1029.48
2017-02-09T06:50:37.891Z,1029.49
2017-02-09T06:51:48.206Z,1029.44
2017-02-09T06:52:58.173Z,1029.48
2017-02-09T06:54:08.490Z,1029.49
2017-02-09T06:55:19.465Z,1029.49
2017-02-09T06:56:30.203Z,1029.49
2017-02-09T06:57:40.909Z,1029.5
2017-02-09T06:58:51.636Z,1029.5
2017-02-09T07:00:01.959Z,1029.51
2017-02-09T07:01:12.515Z,1029.47
2017-02-09T07:02:22.829Z,1029.48
2017-02-09T07:03:33.574Z,1029.46
2017-02-09T07:04:44.285Z,1029.5
2017-02-09T07:05:54.631Z,1029.49
2017-02-09T07:07:05.656Z,1029.53
2017-02-09T07:08:15.967Z,1029.54
2017-02-09T07:09:26.680Z,1029.53
2017-02-09T07:10:37.434Z,1029.5
2017-02-09T07:11:47.375Z,1029.49
2017-02-09T07:12:57.987Z,1029.51
2017-02-09T07:14:07.912Z,1029.49
2017-02-09T07:15:18.245Z,1029.55
2017-02-09T07:16:28.956Z,1029.58
2017-02-09T07:17:39.270Z,1029.56
2017-02-09T07:18:50.354Z,1029.56
2017-02-09T07:20:00.696Z,1029.54
2017-02-09T07:21:11.026Z,1029.54
2017-02-09T07:22:20.948Z,1029.56
2017-02-09T07:23:31.270Z,1029.62
2017-02-09T07:24:41.443Z,1029.63
2017-02-09T07:25:52.168Z,1029.66
2017-02-09T07:27:02.081Z,1029.66
2017-02-09T07:28:12.793Z,1029.67
2017-02-09T07:29:23.099Z,1029.65
2017-02-09T07:30:33.693Z,1029.68
2017-02-09T07:31:44.031Z,1029.68
2017-02-09T07:32:54.750Z,1029.65
2017-02-09T07:34:05.459Z,1029.69
2017-02-09T07:35:16.182Z,1029.66
2017-02-09T07:36:27.190Z,1029.69
2017-02-09T07:37:37.924Z,1029.66
2017-02-09T07:38:48.244Z,1029.72
2017-02-09T07:39:58.212Z,1029.68
2017-02-09T07:41:08.220Z,1029.69
2017-02-09T07:42:19.239Z,1029.66
2017-02-09T07:43:29.572Z,1029.64
2017-02-09T07:44:39.896Z,1029.64
2017-02-09T07:45:50.613Z,1029.69
2017-02-09T07:47:01.332Z,1029.66
2017-02-09T07:48:12.373Z,1029.63
2017-02-09T07:49:23.079Z,1029.61
2017-02-09T07:50:32.590Z,1029.65
2017-02-09T07:51:43.325Z,1029.63
2017-02-09T07:52:53.649Z,1029.67
2017-02-09T07:54:04.682Z,1029.68
2017-02-09T07:55:14.622Z,1029.69
2017-02-09T07:56:25.341Z,1029.69
2017-02-09T07:57:35.258Z,1029.66
2017-02-09T07:58:45.586Z,1029.62
2017-02-09T07:59:56.606Z,1029.63
2017-02-09T08:01:06.117Z,1029.63
2017-02-09T08:02:16.424Z,1029.63
2017-02-09T08:03:26.747Z,1029.61
2017-02-09T08:04:37.085Z,1029.57
2017-02-09T08:05:47.649Z,1029.56
2017-02-09T08:06:58.359Z,1029.59
2017-02-09T08:08:08.661Z,1029.58
2017-02-09T08:09:18.593Z,1029.56
2017-02-09T08:10:29.297Z,1029.56
2017-02-09T08:11:39.958Z,1029.55
2017-02-09T08:12:50.674Z,1029.59
2017-02-09T08:14:00.212Z,1029.59
2017-02-09T08:15:10.549Z,1029.59
2017-02-09T08:16:21.112Z,1029.63
2017-02-09T08:17:31.339Z,1029.63
2017-02-09T08:18:42.043Z,1029.63
2017-02-09T08:19:51.980Z,1029.65
2017-02-09T08:21:02.624Z,1029.64
2017-02-09T08:22:13.338Z,1029.61
2017-02-09T08:23:23.906Z,1029.6
2017-02-09T08:24:33.436Z,1029.64
2017-02-09T08:25:43.759Z,1029.63
2017-02-09T08:26:54.110Z,1029.63
2017-02-09T08:28:04.448Z,1029.62
2017-02-09T08:29:15.036Z,1029.62
2017-02-09T08:30:25.379Z,1029.63
2017-02-09T08:31:35.308Z,1029.57
2017-02-09T08:32:46.051Z,1029.6
2017-02-09T08:33:56.397Z,1029.58
2017-02-09T08:35:06.967Z,1029.55
2017-02-09T08:36:17.283Z,1029.59
2017-02-09T08:37:27.608Z,1029.62
2017-02-09T08:38:38.345Z,1029.67
2017-02-09T08:39:48.673Z,1029.58
2017-02-09T08:40:58.442Z,1029.6
2017-02-09T08:42:08.368Z,1029.6
2017-02-09T08:43:18.691Z,1029.61
2017-02-09T08:44:28.624Z,1029.62
2017-02-09T08:45:38.974Z,1029.61
2017-02-09T08:46:49.614Z,1029.63
2017-02-09T08:48:00.331Z,1029.61
2017-02-09T08:49:11.054Z,1029.57
2017-02-09T08:50:21.415Z,1029.6
2017-02-09T08:51:32.144Z,1029.58
2017-02-09T08:52:42.339Z,1029.6
2017-02-09T08:53:52.709Z,1029.6
2017-02-09T08:55:03.009Z,1029.59
2017-02-09T08:56:12.952Z,1029.57
2017-02-09T08:57:23.256Z,1029.62
2017-02-09T08:58:34.215Z,1029.58
2017-02-09T08:59:44.625Z,1029.58
2017-02-09T09:00:54.944Z,1029.54
2017-02-09T09:02:05.896Z,1029.56
2017-02-09T09:03:16.614Z,1029.53
2017-02-09T09:04:27.620Z,1029.55
2017-02-09T09:05:37.580Z,1029.57
2017-02-09T09:06:48.307Z,1029.55
2017-02-09T09:07:58.642Z,1029.51
2017-02-09T09:09:08.581Z,1029.52
2017-02-09T09:10:19.786Z,1029.49
2017-02-09T09:11:30.503Z,1029.52
2017-02-09T09:12:40.829Z,1029.51
2017-02-09T09:13:51.160Z,1029.54
2017-02-09T09:15:01.852Z,1029.51
2017-02-09T09:16:12.817Z,1029.5
2017-02-09T09:17:23.853Z,1029.62
2017-02-09T09:18:34.175Z,1029.57
2017-02-09T09:19:44.486Z,1029.56
2017-02-09T09:20:55.192Z,1029.63
2017-02-09T09:22:05.469Z,1029.62
2017-02-09T09:23:15.893Z,1029.61
2017-02-09T09:24:26.248Z,1029.63
2017-02-09T09:25:36.564Z,1029.53
2017-02-09T09:26:47.284Z,1029.56
2017-02-09T09:27:58.256Z,1029.58
2017-02-09T09:29:08.187Z,1029.56
2017-02-09T09:30:18.886Z,1029.57
2017-02-09T09:31:29.583Z,1029.57
2017-02-09T09:32:39.908Z,1029.56
2017-02-09T09:33:50.566Z,1029.56
2017-02-09T09:35:00.076Z,1029.56
2017-02-09T09:36:10.378Z,1029.55
2017-02-09T09:37:20.834Z,1029.55
2017-02-09T09:38:31.568Z,1029.59
2017-02-09T09:39:42.289Z,1029.57
2017-02-09T09:40:53.042Z,1029.61
2017-02-09T09:42:04.114Z,1029.58
2017-02-09T09:43:14.847Z,1029.58
2017-02-09T09:44:25.207Z,1029.59
2017-02-09T09:45:36.250Z,1029.58
2017-02-09T09:46:46.248Z,1029.57
2017-02-09T09:47:56.594Z,1029.58
2017-02-09T09:49:07.348Z,1029.57
2017-02-09T09:50:17.718Z,1029.55
2017-02-09T09:51:27.910Z,1029.55
2017-02-09T09:52:38.628Z,1029.57
2017-02-09T09:53:49.356Z,1029.56
2017-02-09T09:55:00.079Z,1029.53
2017-02-09T09:56:10.816Z,1029.53
2017-02-09T09:57:21.147Z,1029.58
2017-02-09T09:58:31.492Z,1029.53
2017-02-09T09:59:42.214Z,1029.57
2017-02-09T10:00:52.967Z,1029.57
2017-02-09T10:02:03.144Z,1029.56
2017-02-09T10:03:13.097Z,1029.57
2017-02-09T10:04:23.418Z,1029.56
2017-02-09T10:05:34.186Z,1029.59
2017-02-09T10:06:44.550Z,1029.54
2017-02-09T10:07:55.573Z,1029.6
2017-02-09T10:09:06.293Z,1029.59
2017-02-09T10:10:16.223Z,1029.61
2017-02-09T10:11:26.947Z,1029.52
2017-02-09T10:12:37.317Z,1029.56
2017-02-09T10:13:47.933Z,1029.59
2017-02-09T10:14:58.650Z,1029.57
2017-02-09T10:16:09.364Z,1029.54
2017-02-09T10:17:19.664Z,1029.56
2017-02-09T10:18:29.992Z,1029.54
2017-02-09T10:19:39.749Z,1029.5
2017-02-09T10:20:50.515Z,1029.55
2017-02-09T10:22:00.035Z,1029.5
2017-02-09T10:23:10.748Z,1029.49
2017-02-09T10:24:20.646Z,1029.45
2017-02-09T10:25:30.911Z,1029.53
2017-02-09T10:26:41.616Z,1029.46
2017-02-09T10:27:52.333Z,1029.49
2017-02-09T10:29:02.652Z,1029.46
2017-02-09T10:30:12.974Z,1029.49
2017-02-09T10:31:23.270Z,1029.46
2017-02-09T10:32:33.944Z,1029.5
2017-02-09T10:33:44.637Z,1029.54
2017-02-09T10:34:54.959Z,1029.44
2017-02-09T10:36:05.663Z,1029.4
2017-02-09T10:37:16.226Z,1029.43
2017-02-09T10:38:26.131Z,1029.39
2017-02-09T10:39:36.074Z,1029.41
2017-02-09T10:40:45.973Z,1029.42
2017-02-09T10:41:56.684Z,1029.4
2017-02-09T10:43:06.845Z,1029.41
2017-02-09T10:44:17.384Z,1029.36
2017-02-09T10:45:28.130Z,1029.38
2017-02-09T10:46:38.030Z,1029.35
2017-02-09T10:47:48.411Z,1029.4
2017-02-09T10:48:59.086Z,1029.37
2017-02-09T10:50:09.479Z,1029.38
2017-02-09T10:51:19.770Z,1029.37
2017-02-09T10:52:30.090Z,1029.37
2017-02-09T10:53:40.825Z,1029.39
2017-02-09T10:54:51.406Z,1029.38
2017-02-09T10:56:01.765Z,1029.35
2017-02-09T10:57:12.474Z,1029.36
2017-02-09T10:58:21.988Z,1029.35
2017-02-09T10:59:32.760Z,1029.38
2017-02-09T11:00:42.985Z,1029.33
2017-02-09T11:01:53.729Z,1029.31
2017-02-09T11:03:04.050Z,1029.34
2017-02-09T11:04:14.349Z,1029.33
2017-02-09T11:05:24.681Z,1029.25
2017-02-09T11:06:35.639Z,1029.3
2017-02-09T11:07:45.960Z,1029.26
2017-02-09T11:08:56.297Z,1029.22
2017-02-09T11:10:07.014Z,1029.15
2017-02-09T11:11:17.323Z,1029.2
2017-02-09T11:12:27.908Z,1029.18
2017-02-09T11:13:37.040Z,1029.18
2017-02-09T11:14:46.559Z,1029.2
2017-02-09T11:15:56.873Z,1029.18
2017-02-09T11:17:06.810Z,1029.17
2017-02-09T11:18:17.357Z,1029.19
2017-02-09T11:19:27.284Z,1029.12
2017-02-09T11:20:37.612Z,1029.13
2017-02-09T11:21:48.324Z,1029.13
2017-02-09T11:22:58.635Z,1029.11
2017-02-09T11:24:08.793Z,1029.09
2017-02-09T11:25:18.700Z,1029.11
2017-02-09T11:26:28.623Z,1029.08
2017-02-09T11:27:38.553Z,1029.03
2017-02-09T11:28:48.866Z,1028.98
2017-02-09T11:29:59.480Z,1029.01
2017-02-09T11:31:09.845Z,1029
2017-02-09T11:32:19.368Z,1028.99
2017-02-09T11:33:28.908Z,1028.93
2017-02-09T11:34:38.818Z,1028.9
2017-02-09T11:35:48.967Z,1028.9
2017-02-09T11:36:59.692Z,1028.99
2017-02-09T11:38:09.973Z,1028.93
2017-02-09T11:39:20.266Z,1028.89
2017-02-09T11:40:29.856Z,1028.93
2017-02-09T11:41:40.801Z,1028.91
2017-02-09T11:42:51.522Z,1028.91
2017-02-09T11:44:02.232Z,1028.88
2017-02-09T11:45:12.941Z,1028.87
2017-02-09T11:46:23.657Z,1028.89
2017-02-09T11:47:34.608Z,1028.86
2017-02-09T11:48:44.517Z,1028.87
2017-02-09T11:49:55.225Z,1028.91
2017-02-09T11:51:05.147Z,1028.85
2017-02-09T11:52:15.496Z,1028.84
2017-02-09T11:53:25.701Z,1028.87
2017-02-09T11:54:36.503Z,1028.87
2017-02-09T11:55:47.905Z,1028.84
2017-02-09T11:56:58.302Z,1028.79
2017-02-09T11:58:08.629Z,1028.79
2017-02-09T11:59:19.253Z,1028.83
2017-02-09T12:00:29.693Z,1028.84
2017-02-09T12:01:40.542Z,1028.84
2017-02-09T12:02:50.859Z,1028.8
2017-02-09T12:04:00.793Z,1028.81
2017-02-09T12:05:11.836Z,1028.8
2017-02-09T12:06:22.152Z,1028.78
2017-02-09T12:07:32.884Z,1028.73
2017-02-09T12:08:42.830Z,1028.71
2017-02-09T12:09:53.157Z,1028.7
2017-02-09T12:11:03.340Z,1028.7
2017-02-09T12:12:13.705Z,1028.68
2017-02-09T12:13:24.438Z,1028.65
2017-02-09T12:14:34.750Z,1028.63
2017-02-09T12:15:45.482Z,1028.62
2017-02-09T12:16:56.453Z,1028.57
2017-02-09T12:18:06.799Z,1028.6
2017-02-09T12:19:17.151Z,1028.64
2017-02-09T12:20:26.687Z,1028.65
2017-02-09T12:21:37.010Z,1028.62
2017-02-09T12:22:47.582Z,1028.59
2017-02-09T12:23:58.351Z,1028.62
2017-02-09T12:25:09.080Z,1028.59
2017-02-09T12:26:19.397Z,1028.6
2017-02-09T12:27:30.107Z,1028.6
2017-02-09T12:28:40.319Z,1028.62
2017-02-09T12:29:51.031Z,1028.62
2017-02-09T12:31:01.762Z,1028.61
2017-02-09T12:32:11.666Z,1028.61
2017-02-09T12:33:21.597Z,1028.55
2017-02-09T12:34:32.165Z,1028.57
2017-02-09T12:35:42.076Z,1028.52
2017-02-09T12:36:52.379Z,1028.54
2017-02-09T12:38:02.319Z,1028.54
2017-02-09T12:39:13.020Z,1028.51
2017-02-09T12:40:23.192Z,1028.44
2017-02-09T12:41:33.136Z,1028.42
2017-02-09T12:42:43.471Z,1028.4
2017-02-09T12:43:52.993Z,1028.43
2017-02-09T12:45:03.688Z,1028.4
2017-02-09T12:46:14.644Z,1028.4
2017-02-09T12:47:24.972Z,1028.38
2017-02-09T12:48:35.301Z,1028.44
2017-02-09T12:49:46.095Z,1028.38
2017-02-09T12:50:56.804Z,1028.33
2017-02-09T12:52:07.364Z,1028.4
2017-02-09T12:53:17.300Z,1028.39
2017-02-09T12:54:28.037Z,1028.42
2017-02-09T12:55:38.372Z,1028.42
2017-02-09T12:56:48.719Z,1028.41
2017-02-09T12:57:59.691Z,1028.4
2017-02-09T12:59:10.019Z,1028.41
2017-02-09T13:00:20.742Z,1028.38
2017-02-09T13:01:31.467Z,1028.37
2017-02-09T13:02:42.196Z,1028.38
2017-02-09T13:03:52.770Z,1028.41
2017-02-09T13:05:03.100Z,1028.39
2017-02-09T13:06:13.474Z,1028.4
2017-02-09T13:07:23.800Z,1028.36
2017-02-09T13:08:34.149Z,1028.36
2017-02-09T13:09:44.703Z,1028.35
2017-02-09T13:10:54.226Z,1028.32
2017-02-09T13:12:04.562Z,1028.4
2017-02-09T13:13:14.109Z,1028.36
2017-02-09T13:14:24.039Z,1028.31
2017-02-09T13:15:33.809Z,1028.39
2017-02-09T13:16:44.573Z,1028.35
2017-02-09T13:17:55.275Z,1028.38
2017-02-09T13:19:06.124Z,1028.36
2017-02-09T13:20:16.447Z,1028.36
2017-02-09T13:21:27.031Z,1028.34
2017-02-09T13:22:36.580Z,1028.37
2017-02-09T13:23:46.936Z,1028.3
2017-02-09T13:24:57.645Z,1028.33
2017-02-09T13:26:08.375Z,1028.29
2017-02-09T13:27:19.454Z,1028.29
2017-02-09T13:28:30.167Z,1028.28
2017-02-09T13:29:39.719Z,1028.24
2017-02-09T13:30:49.633Z,1028.25
2017-02-09T13:31:59.975Z,1028.26
2017-02-09T13:33:10.581Z,1028.25
2017-02-09T13:34:20.895Z,1028.26
2017-02-09T13:35:31.608Z,1028.23
2017-02-09T13:36:42.360Z,1028.18
2017-02-09T13:37:52.683Z,1028.16
2017-02-09T13:39:03.724Z,1028.21
2017-02-09T13:40:13.663Z,1028.16
2017-02-09T13:41:24.012Z,1028.16
2017-02-09T13:42:34.344Z,1028.17
2017-02-09T13:43:45.057Z,1028.14
2017-02-09T13:44:55.616Z,1028.16
2017-02-09T13:46:06.350Z,1028.09
2017-02-09T13:47:16.686Z,1028.13
2017-02-09T13:48:27.054Z,1028.08
2017-02-09T13:49:37.770Z,1028.12
2017-02-09T13:50:48.782Z,1028.08
2017-02-09T13:51:59.515Z,1028.09
2017-02-09T13:53:09.455Z,1028.1
2017-02-09T13:54:19.422Z,1028.11
2017-02-09T13:55:30.157Z,1028.15
2017-02-09T13:56:40.794Z,1028.11
2017-02-09T13:57:50.303Z,1028.08
2017-02-09T13:59:00.237Z,1028.16
2017-02-09T14:00:10.561Z,1028.09
2017-02-09T14:01:20.860Z,1028.09
2017-02-09T14:02:31.828Z,1028.05
2017-02-09T14:03:42.155Z,1028.13
2017-02-09T14:04:52.491Z,1028.09
2017-02-09T14:06:02.808Z,1028.08
2017-02-09T14:07:13.125Z,1028.04
2017-02-09T14:08:23.764Z,1028.05
2017-02-09T14:09:34.063Z,1028.07
2017-02-09T14:10:44.362Z,1028.1
2017-02-09T14:11:53.488Z,1028.1
2017-02-09T14:13:03.803Z,1028.04
2017-02-09T14:14:14.362Z,1028.03
2017-02-09T14:15:24.666Z,1028.05
2017-02-09T14:16:34.962Z,1028.02